Time;durP1;ratioP1;P1;durP2;ratioP2;P2;SDS_P1;SDS_P2;PMS_P1;PMS_P2;Temp;Humidity;BMP_temperature;BMP_pressure;BME280_temperature;BME280_humidity;BME280_pressure;Samples;Min_cycle;Max_cycle;Signal;HPM_P1;HPM_P2
2022/03/11 00:01:16;;;;;;;10.10;5.32;;;-0.60;76.60;;;;;;4973316;28;20036;-74
2022/03/11 00:03:42;;;;;;;13.85;7.00;;;-0.70;77.60;;;;;;4969902;28;20078;-74
2022/03/11 00:06:14;;;;;;;12.93;5.63;;;-0.80;78.60;;;;;;4973338;28;20438;-68
2022/03/11 00:08:40;;;;;;;20.15;8.30;;;-0.90;79.30;;;;;;4972171;28;20121;-73
2022/03/11 00:11:06;;;;;;;16.42;8.43;;;-1.00;80.30;;;;;;4972958;28;20431;-74
2022/03/11 00:13:32;;;;;;;20.73;9.32;;;-1.10;80.90;;;;;;4973376;28;20484;-70
2022/03/11 00:16:02;;;;;;;16.30;7.90;;;-1.10;81.50;;;;;;4973115;28;20062;-69
2022/03/11 00:18:28;;;;;;;13.30;7.25;;;-1.20;82.20;;;;;;4999899;28;20038;-75
2022/03/11 00:20:54;;;;;;;15.05;7.05;;;-1.20;82.60;;;;;;4972597;28;20085;-73
2022/03/11 00:23:21;;;;;;;14.35;7.57;;;-1.20;82.40;;;;;;4964665;28;20026;-68
2022/03/11 00:25:50;;;;;;;17.20;8.40;;;-1.20;82.50;;;;;;4967160;28;20027;-75
2022/03/11 00:28:16;;;;;;;20.05;8.45;;;-1.20;82.90;;;;;;4950986;28;20050;-70
2022/03/11 00:30:41;;;;;;;19.00;8.43;;;-1.30;83.00;;;;;;4960078;28;20061;-68
2022/03/11 00:33:07;;;;;;;14.38;7.75;;;-1.40;83.40;;;;;;4948331;28;20031;-77
2022/03/11 00:35:35;;;;;;;17.58;8.02;;;-1.40;83.40;;;;;;4975305;28;20041;-72
2022/03/11 00:38:01;;;;;;;16.20;8.43;;;-1.40;83.80;;;;;;4962005;28;20039;-68
2022/03/11 00:40:28;;;;;;;14.82;8.40;;;-1.40;83.80;;;;;;4973035;28;20019;-76
2022/03/11 00:42:54;;;;;;;15.65;7.43;;;-1.40;84.30;;;;;;4999621;28;20081;-67
2022/03/11 00:45:20;;;;;;;15.52;7.47;;;-1.40;84.20;;;;;;4992036;28;20031;-73
2022/03/11 00:47:46;;;;;;;18.35;10.45;;;-1.40;84.10;;;;;;4992504;28;20488;-70
2022/03/11 00:50:12;;;;;;;25.45;12.70;;;-1.40;83.50;;;;;;4992374;28;20076;-73
2022/03/11 00:52:42;;;;;;;20.85;12.27;;;-1.40;83.70;;;;;;4974712;28;20045;-77
2022/03/11 00:55:09;;;;;;;23.13;13.45;;;-1.50;84.50;;;;;;4978998;28;20173;-76
2022/03/11 00:57:36;;;;;;;24.77;14.75;;;-1.50;85.00;;;;;;4972611;28;20045;-75
2022/03/11 01:00:03;;;;;;;29.90;14.25;;;-1.50;85.40;;;;;;4971459;28;20385;-74
2022/03/11 01:02:38;;;;;;;39.15;22.05;;;-1.50;85.90;;;;;;4972855;28;20670;-75
2022/03/11 01:05:07;;;;;;;39.65;20.63;;;-1.60;86.60;;;;;;4955415;28;20083;-77
2022/03/11 01:07:34;;;;;;;30.30;16.90;;;-1.60;86.90;;;;;;4955138;28;20030;-75
2022/03/11 01:10:07;;;;;;;23.60;12.57;;;-1.70;87.00;;;;;;4972832;28;20027;-77
2022/03/11 01:12:33;;;;;;;22.90;11.48;;;-1.60;86.40;;;;;;4971635;28;20042;-77
2022/03/11 01:15:00;;;;;;;20.92;10.50;;;-1.60;86.70;;;;;;4971350;28;20027;-75
2022/03/11 01:17:26;;;;;;;18.55;11.05;;;-1.60;87.00;;;;;;4955368;28;20070;-78
2022/03/11 01:19:54;;;;;;;24.42;11.50;;;-1.70;87.10;;;;;;4955715;28;20025;-76
2022/03/11 01:22:23;;;;;;;22.40;11.52;;;-1.70;87.60;;;;;;4974027;28;20448;-76
2022/03/11 01:25:05;;;;;;;22.95;11.60;;;-1.70;87.30;;;;;;4969216;28;20031;-78
2022/03/11 01:27:33;;;;;;;23.80;13.43;;;-1.60;86.90;;;;;;4956218;28;20058;-72
2022/03/11 01:29:59;;;;;;;31.13;14.60;;;-1.60;86.70;;;;;;4956289;28;20027;-67
2022/03/11 01:32:25;;;;;;;30.42;15.70;;;-1.60;87.10;;;;;;4956665;28;20031;-77
2022/03/11 01:34:51;;;;;;;31.10;18.08;;;-1.60;87.80;;;;;;4957463;28;20055;-76
2022/03/11 01:37:28;;;;;;;33.55;16.55;;;-1.70;89.40;;;;;;4956838;28;20126;-68
2022/03/11 01:39:54;;;;;;;42.40;18.98;;;-1.60;90.10;;;;;;4958779;28;20027;-76
2022/03/11 01:42:20;;;;;;;36.70;16.95;;;-1.60;90.20;;;;;;4967582;28;20089;-67
2022/03/11 01:44:47;;;;;;;26.58;15.75;;;-1.70;91.00;;;;;;4971373;28;20482;-69
2022/03/11 01:47:13;;;;;;;28.48;15.77;;;-1.70;91.40;;;;;;4971270;28;20058;-74
2022/03/11 01:49:48;;;;;;;21.77;12.48;;;-1.60;91.50;;;;;;4969909;28;20027;-75
2022/03/11 01:52:14;;;;;;;30.02;16.73;;;-1.70;91.50;;;;;;4954979;28;20089;-73
2022/03/11 01:54:42;;;;;;;31.48;16.92;;;-1.70;92.30;;;;;;4972433;28;20058;-75
2022/03/11 01:57:10;;;;;;;24.38;12.93;;;-1.80;93.20;;;;;;4975702;28;20050;-69
2022/03/11 01:59:36;;;;;;;22.67;12.88;;;-1.90;94.50;;;;;;4962172;28;20094;-71
2022/03/11 02:02:11;;;;;;;20.35;11.35;;;-1.90;95.50;;;;;;4975439;28;20022;-70
2022/03/11 02:04:37;;;;;;;25.50;12.52;;;-1.90;96.50;;;;;;4955094;28;20067;-70
2022/03/11 02:07:15;;;;;;;22.40;12.48;;;-1.90;97.10;;;;;;4956135;28;20019;-69
2022/03/11 02:10:10;;;;;;;22.25;11.57;;;-2.00;98.50;;;;;;4955164;28;20054;-73
2022/03/11 02:12:45;;;;;;;23.85;12.10;;;-2.10;99.70;;;;;;4954742;28;20034;-74
2022/03/11 02:15:15;;;;;;;21.20;11.70;;;-2.20;99.90;;;;;;4956208;28;20031;-67
2022/03/11 02:17:41;;;;;;;23.15;12.50;;;-2.20;99.90;;;;;;4954688;28;20084;-67
2022/03/11 02:20:08;;;;;;;24.08;12.73;;;-2.10;99.90;;;;;;4974156;28;20026;-73
2022/03/11 02:22:36;;;;;;;20.27;12.13;;;-2.20;99.90;;;;;;4975106;28;20156;-69
2022/03/11 02:25:07;;;;;;;20.33;11.57;;;-2.20;99.90;;;;;;4958225;28;20054;-71
2022/03/11 02:27:42;;;;;;;25.20;12.82;;;-2.30;99.90;;;;;;4975184;28;20042;-74
2022/03/11 02:30:14;;;;;;;21.40;11.73;;;-2.30;99.90;;;;;;4973949;28;20071;-74
2022/03/11 02:32:40;;;;;;;21.38;11.85;;;-2.30;99.90;;;;;;4957560;28;20493;-72
2022/03/11 02:35:07;;;;;;;17.30;9.73;;;-2.30;99.90;;;;;;4955658;28;20746;-76
2022/03/11 02:37:33;;;;;;;20.45;10.95;;;-2.30;99.90;;;;;;4956785;28;20086;-75
2022/03/11 02:39:59;;;;;;;18.63;10.40;;;-2.30;99.90;;;;;;4973078;28;20031;-71
2022/03/11 02:42:25;;;;;;;24.80;10.05;;;-2.40;99.90;;;;;;4973085;28;20548;-76
2022/03/11 02:44:51;;;;;;;17.73;9.60;;;-2.40;99.90;;;;;;4973671;28;20034;-74
2022/03/11 02:47:17;;;;;;;16.90;9.52;;;-2.40;99.90;;;;;;4972541;28;20043;-71
2022/03/11 02:49:52;;;;;;;16.83;8.93;;;-2.40;99.90;;;;;;4960192;28;20031;-75
2022/03/11 02:52:19;;;;;;;17.45;8.85;;;-2.40;99.90;;;;;;4957684;28;20035;-72
2022/03/11 02:54:45;;;;;;;16.23;8.82;;;-2.40;99.90;;;;;;4970267;28;20062;-74
2022/03/11 02:57:14;;;;;;;18.05;10.20;;;-2.40;99.90;;;;;;4954961;28;20079;-70
2022/03/11 02:59:44;;;;;;;18.52;9.85;;;-2.40;99.90;;;;;;4954149;28;20082;-72
2022/03/11 03:02:10;;;;;;;18.65;8.35;;;-2.50;99.90;;;;;;4954993;28;20035;-75
2022/03/11 03:04:36;;;;;;;20.48;9.43;;;-2.50;99.90;;;;;;4965463;28;20174;-72
2022/03/11 03:07:02;;;;;;;18.85;9.07;;;-2.50;99.90;;;;;;4954858;28;20525;-69
2022/03/11 03:09:28;;;;;;;18.13;9.23;;;-2.60;99.90;;;;;;4975053;28;20031;-72
2022/03/11 03:11:57;;;;;;;19.40;9.45;;;-2.60;99.90;;;;;;4955069;28;20035;-76
2022/03/11 03:14:26;;;;;;;14.95;8.95;;;-2.70;99.90;;;;;;4957694;28;20086;-78
2022/03/11 03:16:52;;;;;;;18.40;10.38;;;-2.70;99.90;;;;;;4973271;28;20039;-74
2022/03/11 03:19:19;;;;;;;16.13;8.57;;;-2.70;99.90;;;;;;4960526;28;20054;-74
2022/03/11 03:21:45;;;;;;;20.13;9.60;;;-2.80;99.90;;;;;;4948378;28;20533;-69
2022/03/11 03:24:16;;;;;;;17.65;9.35;;;-2.80;99.90;;;;;;4968626;28;20034;-74
2022/03/11 03:26:42;;;;;;;19.45;9.80;;;-2.90;99.90;;;;;;4971963;28;20041;-73
2022/03/11 03:29:08;;;;;;;20.88;10.27;;;-2.80;99.90;;;;;;4966838;28;20453;-77
2022/03/11 03:31:34;;;;;;;22.77;10.50;;;-2.80;99.90;;;;;;4954394;28;20601;-73
2022/03/11 03:34:00;;;;;;;25.08;9.50;;;-2.80;99.90;;;;;;4969585;28;20106;-76
2022/03/11 03:36:26;;;;;;;20.88;10.52;;;-2.90;99.90;;;;;;4954856;28;20178;-76
2022/03/11 03:38:53;;;;;;;21.40;9.60;;;-2.80;99.90;;;;;;4946136;28;20035;-73
2022/03/11 03:41:22;;;;;;;17.73;9.40;;;-2.80;99.90;;;;;;4953123;28;20533;-76
2022/03/11 03:43:53;;;;;;;17.08;9.63;;;-2.90;99.90;;;;;;4936558;28;20019;-72
2022/03/11 03:46:21;;;;;;;23.92;8.98;;;-2.90;99.90;;;;;;4968979;28;20051;-72
2022/03/11 03:48:58;;;;;;;18.00;8.90;;;-2.90;99.90;;;;;;4953984;28;20114;-70
2022/03/11 03:51:27;;;;;;;18.25;9.63;;;-3.00;99.90;;;;;;4963427;28;20034;-74
2022/03/11 03:53:53;;;;;;;17.58;9.05;;;-3.00;99.90;;;;;;4969227;28;20031;-75
2022/03/11 03:56:19;;;;;;;16.75;9.63;;;-3.10;99.90;;;;;;4969478;28;20442;-68
2022/03/11 03:58:45;;;;;;;19.45;8.95;;;-3.00;99.90;;;;;;4973019;28;20045;-76
2022/03/11 04:01:11;;;;;;;19.20;9.07;;;-3.00;99.90;;;;;;4969755;28;20026;-78
2022/03/11 04:03:47;;;;;;;20.13;9.98;;;-3.10;99.90;;;;;;4953545;28;20074;-75
2022/03/11 04:06:25;;;;;;;19.20;9.27;;;-3.10;99.90;;;;;;4967185;28;20027;-72
2022/03/11 04:09:10;;;;;;;16.55;8.60;;;-3.10;99.90;;;;;;4961606;28;20074;-72
2022/03/11 04:11:39;;;;;;;21.50;10.70;;;-3.20;99.90;;;;;;4973836;28;20122;-70
2022/03/11 04:14:08;;;;;;;23.85;10.57;;;-3.20;99.90;;;;;;4959963;28;20023;-73
2022/03/11 04:16:34;;;;;;;25.50;12.90;;;-3.20;99.90;;;;;;4965129;28;20078;-77
2022/03/11 04:19:00;;;;;;;25.02;13.02;;;-3.20;99.90;;;;;;4960300;28;20053;-75
2022/03/11 04:21:30;;;;;;;27.50;14.32;;;-3.30;99.90;;;;;;4954538;28;20462;-74
2022/03/11 04:23:58;;;;;;;33.22;17.60;;;-3.30;99.90;;;;;;4960526;28;20031;-70
2022/03/11 04:26:24;;;;;;;41.03;21.05;;;-3.30;99.90;;;;;;4956314;28;20027;-76
2022/03/11 04:28:50;;;;;;;39.03;21.08;;;-3.30;99.90;;;;;;4953527;28;20114;-75
2022/03/11 04:31:16;;;;;;;26.67;16.08;;;-3.30;99.90;;;;;;4954491;28;20027;-74
2022/03/11 04:33:45;;;;;;;25.17;13.48;;;-3.30;99.90;;;;;;4953323;28;20549;-78
2022/03/11 04:36:11;;;;;;;17.88;10.95;;;-3.30;99.90;;;;;;4966906;28;20076;-77
2022/03/11 04:38:42;;;;;;;20.75;11.82;;;-3.30;99.90;;;;;;4970578;28;20092;-75
2022/03/11 04:41:11;;;;;;;19.25;10.82;;;-3.40;99.90;;;;;;4972331;28;20389;-77
2022/03/11 04:43:37;;;;;;;22.50;11.07;;;-3.40;99.90;;;;;;4971505;28;20019;-72
2022/03/11 04:46:03;;;;;;;18.80;11.48;;;-3.40;99.90;;;;;;4958309;28;20142;-76
2022/03/11 04:48:31;;;;;;;22.23;11.55;;;-3.50;99.90;;;;;;4952535;28;20046;-74
2022/03/11 04:51:04;;;;;;;27.10;14.32;;;-3.40;99.90;;;;;;4961457;28;20035;-75
2022/03/11 04:53:30;;;;;;;25.67;12.98;;;-3.40;99.90;;;;;;4961664;28;20821;-76
2022/03/11 04:55:56;;;;;;;18.75;11.52;;;-3.50;99.90;;;;;;4961241;28;20109;-76
2022/03/11 04:58:22;;;;;;;29.52;13.68;;;-3.50;99.90;;;;;;4956142;28;20413;-71
2022/03/11 05:00:49;;;;;;;23.83;13.93;;;-3.40;99.90;;;;;;4957223;28;20020;-67
2022/03/11 05:03:17;;;;;;;23.48;14.45;;;-3.50;99.90;;;;;;4967356;28;20027;-75
2022/03/11 05:05:43;;;;;;;22.38;12.02;;;-3.50;99.90;;;;;;4975055;28;20114;-75
2022/03/11 05:08:12;;;;;;;18.48;10.70;;;-3.50;99.90;;;;;;4975821;28;20126;-70
2022/03/11 05:10:43;;;;;;;20.00;10.75;;;-3.50;99.90;;;;;;4955834;28;20035;-73
2022/03/11 05:13:10;;;;;;;19.98;9.57;;;-3.50;99.90;;;;;;4957338;28;20178;-75
2022/03/11 05:15:39;;;;;;;21.58;11.50;;;-3.50;99.90;;;;;;4975067;28;20547;-74
2022/03/11 05:18:18;;;;;;;22.02;11.52;;;-3.50;99.90;;;;;;4957016;28;20069;-73
2022/03/11 05:20:53;;;;;;;18.77;10.65;;;-3.20;99.90;;;;;;4974786;28;20537;-70
2022/03/11 05:23:19;;;;;;;16.35;10.05;;;-2.80;98.10;;;;;;4955264;28;20519;-75
2022/03/11 05:25:45;;;;;;;19.00;9.90;;;-2.30;97.00;;;;;;4954971;28;20027;-70
2022/03/11 05:28:11;;;;;;;16.30;9.38;;;-2.00;94.20;;;;;;4975412;28;20428;-75
2022/03/11 05:30:37;;;;;;;18.10;10.52;;;-1.50;92.60;;;;;;4975233;28;20477;-72
2022/03/11 05:33:04;;;;;;;18.52;11.40;;;-0.70;91.50;;;;;;4976123;28;20393;-74
2022/03/11 05:35:30;;;;;;;21.55;12.95;;;-0.20;88.10;;;;;;4975490;28;20101;-75
2022/03/11 05:37:57;;;;;;;17.38;9.77;;;0.10;87.50;;;;;;4975907;28;20073;-75
2022/03/11 05:40:23;;;;;;;20.95;12.32;;;0.00;84.80;;;;;;4970858;28;20070;-73
2022/03/11 05:42:48;;;;;;;24.77;13.40;;;0.20;85.60;;;;;;4955403;28;20462;-74
2022/03/11 05:45:14;;;;;;;26.20;13.13;;;0.60;84.30;;;;;;4956442;28;20102;-74
2022/03/11 05:47:42;;;;;;;20.88;12.55;;;0.70;83.00;;;;;;4956316;28;20047;-73
2022/03/11 05:50:09;;;;;;;19.98;13.10;;;1.00;81.10;;;;;;4956552;28;20023;-74
2022/03/11 05:52:37;;;;;;;21.52;13.32;;;1.40;79.70;;;;;;4956174;28;20031;-75
2022/03/11 05:55:05;;;;;;;19.38;12.20;;;1.30;79.40;;;;;;4954775;28;20070;-74
2022/03/11 05:57:31;;;;;;;20.10;12.88;;;1.30;77.30;;;;;;4956188;28;20039;-72
2022/03/11 05:59:57;;;;;;;24.33;14.43;;;1.10;78.00;;;;;;4956121;28;20101;-74
2022/03/11 06:02:24;;;;;;;25.27;14.75;;;1.50;77.80;;;;;;4955973;28;20023;-76
2022/03/11 06:04:50;;;;;;;21.08;13.75;;;1.50;77.50;;;;;;4972683;28;20026;-75
2022/03/11 06:07:16;;;;;;;21.55;13.35;;;1.70;77.90;;;;;;4974766;28;20031;-75
2022/03/11 06:09:42;;;;;;;26.90;15.57;;;1.30;77.00;;;;;;4973675;28;20134;-74
2022/03/11 06:12:09;;;;;;;24.77;13.10;;;1.80;78.40;;;;;;4974990;28;20111;-75
2022/03/11 06:14:35;;;;;;;28.48;14.77;;;1.60;77.90;;;;;;4961030;28;20039;-76
2022/03/11 06:17:02;;;;;;;21.80;11.20;;;1.10;77.60;;;;;;4976704;28;20041;-75
2022/03/11 06:19:28;;;;;;;20.30;10.85;;;-0.10;79.20;;;;;;4974546;28;20030;-70
2022/03/11 06:21:57;;;;;;;19.30;10.48;;;-0.40;81.50;;;;;;4971806;28;20034;-75
2022/03/11 06:24:26;;;;;;;17.70;9.30;;;-0.70;82.90;;;;;;4957498;28;20027;-74
2022/03/11 06:26:52;;;;;;;22.17;10.73;;;-1.10;83.40;;;;;;4977455;28;20280;-75
2022/03/11 06:29:18;;;;;;;21.25;10.25;;;-1.10;85.10;;;;;;4968015;28;20106;-76
2022/03/11 06:31:44;;;;;;;16.15;9.38;;;-1.20;85.00;;;;;;4958072;28;20074;-76
2022/03/11 06:34:10;;;;;;;17.38;8.85;;;-1.30;86.00;;;;;;4955695;28;20027;-75
2022/03/11 06:36:36;;;;;;;21.45;10.85;;;-1.50;86.70;;;;;;4971919;28;20074;-75
2022/03/11 06:39:03;;;;;;;16.45;9.73;;;-1.40;88.40;;;;;;4974570;28;20469;-75
2022/03/11 06:41:30;;;;;;;16.63;9.07;;;-1.30;89.00;;;;;;4972085;28;20046;-76
2022/03/11 06:43:56;;;;;;;15.82;8.45;;;-1.20;88.40;;;;;;4974410;28;20034;-75
2022/03/11 06:46:21;;;;;;;18.48;9.70;;;-1.20;87.00;;;;;;4958522;28;20086;-76
2022/03/11 06:48:47;;;;;;;20.17;9.15;;;-1.00;89.20;;;;;;4955642;28;20023;-76
2022/03/11 06:51:14;;;;;;;17.95;9.02;;;-1.00;88.40;;;;;;4969518;28;20450;-76
2022/03/11 06:53:41;;;;;;;20.45;10.50;;;-0.90;89.00;;;;;;4971394;28;20023;-76
2022/03/11 06:56:07;;;;;;;19.40;9.35;;;-0.90;89.40;;;;;;4977134;28;20090;-76
2022/03/11 06:58:33;;;;;;;17.23;8.57;;;-1.10;87.70;;;;;;4969349;28;20050;-76
2022/03/11 07:00:59;;;;;;;18.25;9.27;;;-1.00;87.60;;;;;;4973645;28;20090;-76
2022/03/11 07:03:25;;;;;;;18.52;8.43;;;-1.00;87.50;;;;;;4957627;28;20064;-76
2022/03/11 07:05:51;;;;;;;24.67;12.30;;;-0.70;89.30;;;;;;4964132;28;20400;-76
2022/03/11 07:08:18;;;;;;;14.73;9.63;;;-0.80;89.20;;;;;;4974433;28;20031;-75
2022/03/11 07:10:43;;;;;;;18.10;9.25;;;-0.80;88.80;;;;;;4973497;28;20030;-75
2022/03/11 07:13:10;;;;;;;17.27;10.07;;;-0.60;88.20;;;;;;4963439;28;20444;-75
2022/03/11 07:15:36;;;;;;;18.85;9.20;;;-0.50;87.10;;;;;;4972253;28;20023;-75
2022/03/11 07:18:05;;;;;;;18.67;9.55;;;-0.40;85.40;;;;;;4973882;28;20035;-76
2022/03/11 07:20:31;;;;;;;14.75;8.68;;;-0.60;85.70;;;;;;4971946;28;20026;-75
2022/03/11 07:22:57;;;;;;;16.23;8.95;;;-0.60;84.80;;;;;;4961777;28;20081;-77
2022/03/11 07:25:23;;;;;;;19.13;9.63;;;-0.30;87.60;;;;;;4954627;28;20023;-77
2022/03/11 07:27:49;;;;;;;17.35;9.13;;;-0.20;86.60;;;;;;4955820;28;20035;-77
2022/03/11 07:30:15;;;;;;;14.75;8.05;;;-0.10;84.30;;;;;;4954989;28;20488;-77
2022/03/11 07:32:41;;;;;;;18.67;9.80;;;-0.20;81.60;;;;;;4954586;28;20118;-76
2022/03/11 07:35:09;;;;;;;18.13;7.82;;;-0.20;82.80;;;;;;4973335;28;20532;-76
2022/03/11 07:37:39;;;;;;;16.58;8.15;;;-0.20;82.50;;;;;;4973810;28;20035;-75
2022/03/11 07:40:05;;;;;;;15.80;7.60;;;-0.40;81.80;;;;;;4971581;28;20389;-77
2022/03/11 07:42:33;;;;;;;18.60;9.05;;;-0.10;83.00;;;;;;4971240;28;20026;-76
2022/03/11 07:45:00;;;;;;;16.67;8.75;;;0.10;82.60;;;;;;4972176;28;20027;-76
2022/03/11 07:47:26;;;;;;;14.48;7.55;;;0.00;81.90;;;;;;4974196;28;20507;-77
2022/03/11 07:49:52;;;;;;;15.55;8.60;;;-0.10;80.60;;;;;;4968544;28;20023;-77
2022/03/11 07:52:21;;;;;;;20.67;9.00;;;-0.20;81.60;;;;;;4965808;28;20547;-77
2022/03/11 07:54:47;;;;;;;17.20;9.27;;;-0.10;81.00;;;;;;4973263;28;20039;-77
2022/03/11 07:57:12;;;;;;;15.80;7.57;;;0.10;82.70;;;;;;4973537;28;20501;-76
2022/03/11 07:59:41;;;;;;;15.95;7.40;;;0.30;83.00;;;;;;4969886;28;20035;-77
2022/03/11 08:02:07;;;;;;;15.88;7.95;;;0.40;79.70;;;;;;4952677;28;20508;-77
2022/03/11 08:04:34;;;;;;;13.90;7.80;;;0.40;81.90;;;;;;4957742;28;20031;-72
2022/03/11 08:07:06;;;;;;;15.70;8.13;;;0.70;80.50;;;;;;4956071;28;20019;-77
2022/03/11 08:09:35;;;;;;;16.08;8.07;;;1.00;81.70;;;;;;4954065;28;20047;-76
2022/03/11 08:12:06;;;;;;;14.85;8.10;;;1.00;80.00;;;;;;4939950;28;20034;-77
2022/03/11 08:14:32;;;;;;;15.57;8.43;;;1.10;79.60;;;;;;4972649;28;20027;-77
2022/03/11 08:16:58;;;;;;;15.02;7.93;;;1.20;79.10;;;;;;4957371;28;20089;-76
2022/03/11 08:19:24;;;;;;;16.50;8.68;;;1.30;79.80;;;;;;4965911;28;20027;-74
2022/03/11 08:21:51;;;;;;;16.45;9.18;;;1.20;78.40;;;;;;4971075;28;20050;-75
2022/03/11 08:24:18;;;;;;;16.50;8.35;;;1.20;77.00;;;;;;4971464;28;20093;-75
2022/03/11 08:26:44;;;;;;;15.20;8.35;;;1.00;78.70;;;;;;4972937;28;20109;-77
2022/03/11 11:18:36;;;;;;;14.20;7.68;;;4.40;66.70;;;;;;5210065;23;20096;-73
2022/03/11 11:21:07;;;;;;;14.18;6.53;;;4.50;66.70;;;;;;5005854;28;20037;-72
2022/03/11 11:23:33;;;;;;;15.35;7.25;;;4.50;66.40;;;;;;5006700;28;20022;-78
2022/03/11 11:25:59;;;;;;;14.13;7.43;;;4.60;68.00;;;;;;5010990;28;20022;-76
2022/03/11 11:28:26;;;;;;;14.35;7.25;;;5.00;69.00;;;;;;4986017;28;20042;-76
2022/03/11 11:30:54;;;;;;;11.82;6.30;;;5.20;68.40;;;;;;4992920;28;20023;-77
2022/03/11 11:33:21;;;;;;;18.20;8.43;;;5.30;66.20;;;;;;4992078;28;20041;-77
2022/03/11 11:35:57;;;;;;;14.00;7.28;;;5.20;65.10;;;;;;4959762;28;20073;-77
2022/03/11 11:38:42;;;;;;;17.30;8.88;;;5.00;62.40;;;;;;5003765;28;20030;-76
2022/03/11 11:41:18;;;;;;;13.40;6.95;;;4.80;62.10;;;;;;4993460;28;20026;-77
2022/03/11 11:43:54;;;;;;;14.77;6.57;;;4.80;63.30;;;;;;4992594;28;20038;-77
2022/03/11 11:46:22;;;;;;;12.50;7.40;;;4.90;63.00;;;;;;4992341;28;20038;-75
2022/03/11 11:48:48;;;;;;;13.25;6.35;;;4.90;62.30;;;;;;4992619;28;20046;-76
2022/03/11 11:51:44;;;;;;;12.57;6.32;;;4.80;61.80;;;;;;4974911;28;20536;-76
2022/03/11 11:54:11;;;;;;;17.50;7.45;;;4.70;61.80;;;;;;4982462;28;20404;-78
2022/03/11 11:56:39;;;;;;;11.90;6.53;;;4.70;63.10;;;;;;4998951;28;20359;-78
2022/03/11 11:59:15;;;;;;;16.15;7.65;;;4.60;60.90;;;;;;4974416;28;20100;-77
2022/03/11 12:01:42;;;;;;;12.52;7.00;;;4.80;61.40;;;;;;4991889;28;20070;-76
2022/03/11 12:04:39;;;;;;;12.63;6.43;;;4.90;61.30;;;;;;4992293;28;20108;-77
2022/03/11 12:07:16;;;;;;;14.75;6.95;;;5.00;60.10;;;;;;4991350;28;20113;-78
2022/03/11 12:09:42;;;;;;;12.20;6.65;;;4.70;60.80;;;;;;4991840;28;20120;-77
2022/03/11 12:12:20;;;;;;;12.43;6.88;;;4.80;61.50;;;;;;4992179;28;20062;-76
2022/03/11 12:15:04;;;;;;;18.85;8.73;;;5.00;61.00;;;;;;4991658;28;20480;-76
2022/03/11 12:17:51;;;;;;;16.77;9.15;;;5.30;62.20;;;;;;4991306;28;20034;-76
2022/03/11 12:20:30;;;;;;;13.85;7.05;;;5.50;63.90;;;;;;4992410;28;20026;-77
2022/03/11 12:23:06;;;;;;;15.90;7.03;;;5.70;63.20;;;;;;4992525;28;20116;-76
2022/03/11 12:25:45;;;;;;;20.42;7.95;;;6.00;63.40;;;;;;4991793;28;20499;-77
2022/03/11 12:28:28;;;;;;;17.05;8.02;;;5.60;59.00;;;;;;4991804;28;20049;-76
2022/03/11 12:30:56;;;;;;;16.05;8.75;;;5.60;63.00;;;;;;4998299;28;20033;-77
2022/03/11 12:33:22;;;;;;;16.80;8.57;;;5.30;60.50;;;;;;4992677;28;20681;-77
2022/03/11 12:35:51;;;;;;;13.05;7.35;;;5.00;59.90;;;;;;4992497;28;20125;-75
2022/03/11 12:38:22;;;;;;;17.98;9.32;;;4.90;60.40;;;;;;4991489;28;20708;-75
2022/03/11 12:40:49;;;;;;;17.05;8.88;;;4.90;59.30;;;;;;4991889;28;20093;-75
2022/03/11 12:43:16;;;;;;;14.18;6.55;;;5.00;62.20;;;;;;4991531;28;20072;-77
2022/03/11 12:45:48;;;;;;;13.85;8.20;;;4.60;59.70;;;;;;4973785;28;20026;-75
2022/03/11 12:48:17;;;;;;;14.57;7.35;;;4.90;62.10;;;;;;4990870;28;20377;-77
2022/03/11 12:50:46;;;;;;;12.75;7.03;;;5.20;61.30;;;;;;4991300;28;20030;-76
2022/03/11 12:53:13;;;;;;;15.70;7.03;;;5.30;58.90;;;;;;4974335;28;20026;-75
2022/03/11 12:55:42;;;;;;;12.68;6.35;;;5.40;59.80;;;;;;4998742;28;20061;-76
2022/03/11 12:58:11;;;;;;;11.73;5.95;;;4.90;57.80;;;;;;4981332;28;20041;-76
2022/03/11 13:00:40;;;;;;;13.13;6.35;;;4.80;59.20;;;;;;4987448;28;20058;-75
2022/03/11 13:03:14;;;;;;;14.95;8.45;;;4.70;59.00;;;;;;4968853;28;20072;-77
2022/03/11 13:05:45;;;;;;;12.02;6.45;;;4.90;61.80;;;;;;4989135;28;20030;-75
2022/03/11 13:08:18;;;;;;;11.10;7.00;;;5.00;59.80;;;;;;4991013;28;20155;-76
2022/03/11 13:10:46;;;;;;;14.10;7.05;;;4.80;60.10;;;;;;4991575;28;20445;-75
2022/03/11 13:13:12;;;;;;;13.13;6.68;;;5.00;59.40;;;;;;4990831;28;20031;-75
2022/03/11 13:15:41;;;;;;;14.70;7.13;;;5.10;58.80;;;;;;4973968;28;20033;-77
2022/03/11 13:18:21;;;;;;;13.73;6.30;;;5.10;57.70;;;;;;4959172;28;20518;-74
2022/03/11 13:21:00;;;;;;;18.50;8.07;;;5.10;57.40;;;;;;4996525;28;20023;-76
2022/03/11 13:23:30;;;;;;;10.70;6.32;;;5.10;58.60;;;;;;4995184;28;20125;-76
2022/03/11 13:25:57;;;;;;;18.67;9.48;;;5.10;56.60;;;;;;4995350;28;20026;-76
2022/03/11 13:28:34;;;;;;;13.57;7.07;;;5.10;57.90;;;;;;4994979;28;20375;-76
2022/03/11 13:31:15;;;;;;;13.35;7.72;;;4.70;56.70;;;;;;4995306;28;20431;-76
2022/03/11 13:33:43;;;;;;;13.35;6.75;;;4.90;58.40;;;;;;4995192;28;20034;-76
2022/03/11 13:36:22;;;;;;;14.48;7.00;;;5.00;59.30;;;;;;4977804;28;20030;-74
2022/03/11 13:38:56;;;;;;;11.45;6.13;;;5.10;58.80;;;;;;4977715;28;20042;-74
2022/03/11 13:41:47;;;;;;;14.13;7.82;;;5.10;58.90;;;;;;4993733;28;20113;-75
2022/03/11 13:44:20;;;;;;;9.05;5.47;;;5.20;58.70;;;;;;4987333;28;20480;-76
2022/03/11 13:47:05;;;;;;;;;;;5.10;58.80;;;;;;4995074;28;20022;-76
2022/03/11 13:49:40;;;;;;;13.60;5.95;;;5.10;58.60;;;;;;4994965;28;19921;-76
2022/03/11 13:52:09;;;;;;;10.98;6.15;;;5.30;58.30;;;;;;4994694;28;20085;-76
2022/03/11 13:54:40;;;;;;;10.63;5.78;;;5.40;57.90;;;;;;4994776;28;20037;-76
2022/03/11 13:57:25;;;;;;;13.30;7.13;;;5.40;56.10;;;;;;5007753;28;20031;-76
2022/03/11 14:00:22;;;;;;;11.48;6.18;;;5.50;57.30;;;;;;4979379;28;20324;-76
2022/03/11 14:02:49;;;;;;;12.52;6.70;;;5.60;58.00;;;;;;4934165;29;20143;-76
2022/03/11 14:05:18;;;;;;;13.15;6.03;;;5.60;58.00;;;;;;4934176;29;20126;-76
2022/03/11 14:07:46;;;;;;;11.00;6.07;;;5.70;57.60;;;;;;4933342;29;20190;-74
2022/03/11 14:10:14;;;;;;;16.20;6.50;;;5.60;57.20;;;;;;4933592;29;20031;-75
2022/03/11 14:12:40;;;;;;;12.32;6.10;;;5.40;56.90;;;;;;4933371;29;20094;-75
2022/03/11 14:15:08;;;;;;;13.05;6.97;;;5.20;58.30;;;;;;4929317;29;20024;-76
2022/03/11 14:17:35;;;;;;;12.23;7.15;;;5.20;58.80;;;;;;4908953;29;20083;-77
2022/03/11 14:20:06;;;;;;;8.50;5.00;;;5.20;57.10;;;;;;4907872;29;20036;-73
2022/03/11 14:22:35;;;;;;;21.00;10.88;;;5.10;55.30;;;;;;4920383;29;20020;-69
2022/03/11 14:25:03;;;;;;;16.92;9.02;;;5.10;55.80;;;;;;4932070;29;20071;-71
2022/03/11 14:27:29;;;;;;;11.73;6.93;;;5.00;57.50;;;;;;4931495;29;20040;-74
2022/03/11 14:29:55;;;;;;;11.63;6.07;;;5.00;55.60;;;;;;4914656;29;20032;-74
2022/03/11 14:32:21;;;;;;;13.25;6.75;;;4.90;57.10;;;;;;4914967;29;20032;-74
2022/03/11 14:34:47;;;;;;;10.98;5.78;;;5.10;56.40;;;;;;4914956;29;20122;-71
2022/03/11 14:37:13;;;;;;;12.23;5.75;;;5.10;54.40;;;;;;4914788;29;20427;-73
2022/03/11 14:39:42;;;;;;;12.77;6.28;;;5.20;53.90;;;;;;4944072;28;20429;-75
2022/03/11 14:42:08;;;;;;;15.35;6.22;;;5.10;53.30;;;;;;4957623;28;20537;-73
2022/03/11 14:44:36;;;;;;;12.57;6.28;;;5.10;53.60;;;;;;4974674;28;20481;-74
2022/03/11 14:47:05;;;;;;;12.63;5.53;;;5.10;54.20;;;;;;4974217;28;20089;-74
2022/03/11 14:49:31;;;;;;;14.95;6.30;;;5.10;56.10;;;;;;4971277;28;20100;-73
2022/03/11 14:51:57;;;;;;;11.57;5.47;;;5.20;54.40;;;;;;4955291;29;20045;-74
2022/03/11 14:54:23;;;;;;;13.88;6.63;;;5.20;53.90;;;;;;4955464;29;20027;-74
2022/03/11 14:56:50;;;;;;;8.93;5.15;;;5.20;53.50;;;;;;4975734;28;20498;-73
2022/03/11 14:59:25;;;;;;;14.95;7.60;;;5.20;52.60;;;;;;4975686;28;20440;-75
2022/03/11 15:01:51;;;;;;;8.35;4.85;;;5.20;52.30;;;;;;4975456;28;20043;-75
2022/03/11 15:04:17;;;;;;;11.32;5.13;;;5.20;53.80;;;;;;4991400;28;20035;-71
2022/03/11 15:06:43;;;;;;;11.52;5.18;;;5.10;55.50;;;;;;4992991;28;20048;-73
2022/03/11 15:09:09;;;;;;;11.43;5.40;;;5.10;53.30;;;;;;4991943;28;20015;-73
2022/03/11 15:11:35;;;;;;;15.48;7.90;;;5.10;53.60;;;;;;4991862;28;20066;-74
2022/03/11 15:14:02;;;;;;;10.65;4.95;;;5.00;53.20;;;;;;4993280;28;20077;-74
2022/03/11 15:16:28;;;;;;;10.68;5.05;;;5.00;54.00;;;;;;4993538;28;20038;-73
2022/03/11 15:18:54;;;;;;;15.20;6.63;;;5.00;52.20;;;;;;4992843;28;20050;-72
2022/03/11 15:21:20;;;;;;;14.85;6.20;;;5.00;54.70;;;;;;4957538;28;20489;-74
2022/03/11 15:23:45;;;;;;;14.07;6.82;;;5.00;54.20;;;;;;4954538;29;20031;-73
2022/03/11 15:26:25;;;;;;;14.50;6.88;;;5.00;53.10;;;;;;4954766;29;20106;-73
2022/03/11 15:28:56;;;;;;;17.67;8.63;;;5.00;54.00;;;;;;4937028;29;20036;-73
2022/03/11 15:31:29;;;;;;;24.10;12.50;;;4.90;53.80;;;;;;4953985;29;20095;-73
2022/03/11 15:33:56;;;;;;;17.73;8.48;;;4.90;55.00;;;;;;4952756;29;20039;-73
2022/03/11 15:36:22;;;;;;;13.82;6.63;;;4.80;53.70;;;;;;4954342;29;20027;-74